createdAt,value
2023-05-03T00:05:00.932Z,96.88
2023-05-03T00:10:06.708Z,98.55
2023-05-03T00:15:10.690Z,100.00
2023-05-03T00:20:13.405Z,100.00
2023-05-03T00:25:17.622Z,100.00
2023-05-03T00:30:21.083Z,99.96
2023-05-03T00:35:23.847Z,98.27
2023-05-03T00:40:28.079Z,98.76
2023-05-03T00:45:31.809Z,99.51
2023-05-03T00:50:34.577Z,100.00
2023-05-03T00:55:38.617Z,98.22
2023-05-03T01:00:41.501Z,99.20
2023-05-03T01:05:56.689Z,99.34
2023-05-03T01:11:07.564Z,99.45
2023-05-03T01:16:17.237Z,99.50
2023-05-03T01:21:20.835Z,99.09
2023-05-03T01:26:27.197Z,98.83
2023-05-03T01:31:34.239Z,99.21
2023-05-03T01:36:38.179Z,98.99
2023-05-03T01:41:43.878Z,99.58
2023-05-03T01:46:47.201Z,99.27
2023-05-03T01:51:49.791Z,99.32
2023-05-03T01:56:54.819Z,100.00
2023-05-03T02:01:57.373Z,100.00
2023-05-03T02:06:59.939Z,100.00
2023-05-03T02:12:03.943Z,100.00
2023-05-03T02:17:08.380Z,100.00
2023-05-03T02:22:11.185Z,100.00
2023-05-03T02:27:15.672Z,100.00
2023-05-03T02:32:20.310Z,100.00
2023-05-03T02:37:22.986Z,100.00
2023-05-03T02:42:26.979Z,100.00
2023-05-03T02:47:30.265Z,100.00
2023-05-03T02:52:33.163Z,100.00
2023-05-03T02:57:37.318Z,100.00
2023-05-03T03:02:42.482Z,100.00
2023-05-03T03:07:45.673Z,100.00
2023-05-03T03:12:49.661Z,100.00
2023-05-03T03:18:01.583Z,100.00
2023-05-03T03:23:04.385Z,100.00
2023-05-03T03:28:09.634Z,100.00
2023-05-03T03:33:12.656Z,100.00
2023-05-03T03:38:17.573Z,100.00
2023-05-03T03:43:29.703Z,100.00
2023-05-03T03:48:33.667Z,100.00
2023-05-03T03:53:36.930Z,100.00
2023-05-03T03:58:41.826Z,100.00
2023-05-03T04:03:47.226Z,100.00
2023-05-03T04:08:50.454Z,100.00
2023-05-03T04:13:54.905Z,100.00
2023-05-03T04:18:58.091Z,100.00
2023-05-03T04:24:05.779Z,100.00
2023-05-03T04:29:10.169Z,100.00
2023-05-03T04:34:14.863Z,100.00
2023-05-03T04:39:19.919Z,100.00
2023-05-03T04:44:26.215Z,100.00
2023-05-03T04:49:30.280Z,100.00
2023-05-03T04:54:34.382Z,100.00
2023-05-03T04:59:38.412Z,100.00
2023-05-03T05:04:41.207Z,100.00
2023-05-03T05:09:45.163Z,100.00
2023-05-03T05:14:49.736Z,100.00
2023-05-03T05:19:52.398Z,100.00
2023-05-03T05:24:55.021Z,100.00
2023-05-03T05:30:01.162Z,100.00
2023-05-03T05:35:04.389Z,100.00
2023-05-03T05:40:08.705Z,100.00
2023-05-03T05:45:26.578Z,100.00
2023-05-03T05:50:31.380Z,100.00
2023-05-03T05:55:38.781Z,100.00
2023-05-03T06:00:43.145Z,100.00
2023-05-03T06:05:45.934Z,100.00
2023-05-03T06:10:48.690Z,100.00
2023-05-03T06:15:53.720Z,100.00
2023-05-03T06:20:56.491Z,100.00
2023-05-03T06:25:59.641Z,100.00
2023-05-03T06:31:04.322Z,100.00
2023-05-03T06:36:09.226Z,100.00
2023-05-03T06:41:13.021Z,100.00
2023-05-03T06:46:19.581Z,100.00
2023-05-03T06:51:27.310Z,100.00
2023-05-03T06:56:30.291Z,100.00
2023-05-03T07:01:34.226Z,98.57
2023-05-03T07:06:48.248Z,98.01
2023-05-03T07:11:58.364Z,97.78
2023-05-03T07:17:02.299Z,96.83
2023-05-03T07:22:05.366Z,97.46
2023-05-03T07:27:08.309Z,96.71
2023-05-03T07:32:12.826Z,94.92
2023-05-03T07:37:15.485Z,95.88
2023-05-03T07:42:18.774Z,91.98
2023-05-03T07:47:22.787Z,91.20
2023-05-03T07:52:25.731Z,88.77
2023-05-03T07:57:28.515Z,85.40
2023-05-03T08:02:32.563Z,90.07
2023-05-03T08:07:35.981Z,82.33
2023-05-03T08:12:38.582Z,75.91
2023-05-03T08:17:43.510Z,73.38
2023-05-03T08:22:46.675Z,76.40
2023-05-03T08:27:49.350Z,75.33
2023-05-03T08:32:54.604Z,78.57
2023-05-03T08:37:57.203Z,81.68
2023-05-03T08:43:07.235Z,78.70
2023-05-03T08:48:12.156Z,79.85
2023-05-03T08:53:14.969Z,80.96
2023-05-03T08:58:18.761Z,83.51
2023-05-03T09:03:22.813Z,83.42
2023-05-03T09:08:25.469Z,79.78
2023-05-03T09:13:32.091Z,80.81
2023-05-03T09:18:36.024Z,81.11
2023-05-03T09:23:38.681Z,81.54
2023-05-03T09:28:42.480Z,83.31
2023-05-03T09:33:47.138Z,82.33
2023-05-03T09:38:52.010Z,81.55
2023-05-03T09:43:56.098Z,79.19
2023-05-03T09:49:01.097Z,78.37
2023-05-03T09:54:04.499Z,77.77
2023-05-03T09:59:07.624Z,77.22
2023-05-03T10:04:12.753Z,77.68
2023-05-03T10:09:21.990Z,75.97
2023-05-03T10:14:26.324Z,73.21
2023-05-03T10:19:35.231Z,73.05
2023-05-03T10:24:39.015Z,75.74
2023-05-03T10:29:53.831Z,78.89
2023-05-03T10:35:01.415Z,74.02
2023-05-03T10:40:07.859Z,77.50
2023-05-03T10:45:20.583Z,73.64
2023-05-03T10:50:28.571Z,75.80
2023-05-03T10:55:33.013Z,75.86
2023-05-03T11:00:40.291Z,73.59
2023-05-03T11:05:45.326Z,76.84
2023-05-03T11:10:59.684Z,75.95
2023-05-03T11:16:04.948Z,73.56
2023-05-03T11:21:11.450Z,71.95
2023-05-03T11:26:17.556Z,71.65
2023-05-03T11:31:23.534Z,73.14
2023-05-03T11:36:31.198Z,67.38
2023-05-03T11:41:35.464Z,70.21
2023-05-03T11:46:40.355Z,68.64
2023-05-03T11:51:48.426Z,69.66
2023-05-03T11:56:59.450Z,65.73
2023-05-03T12:02:04.428Z,66.95
2023-05-03T12:07:10.662Z,64.68
2023-05-03T12:12:24.607Z,65.07
2023-05-03T12:17:39.813Z,65.66
2023-05-03T12:22:50.827Z,66.80
2023-05-03T12:28:07.302Z,62.43
2023-05-03T12:33:21.800Z,62.81
2023-05-03T12:38:29.804Z,61.53
2023-05-03T12:43:33.580Z,60.18
2023-05-03T12:48:36.430Z,64.13
2023-05-03T13:00:34.646Z,60.40
2023-05-03T13:05:38.620Z,57.30
2023-05-03T13:10:41.813Z,57.25
2023-05-03T13:15:46.242Z,56.07
2023-05-03T13:20:49.210Z,56.80
2023-05-03T13:25:54.149Z,54.85
2023-05-03T13:30:58.036Z,56.92
2023-05-03T13:36:00.726Z,56.72
2023-05-03T13:41:08.370Z,56.47
2023-05-03T13:46:13.493Z,54.47
2023-05-03T13:51:16.067Z,52.32
2023-05-03T13:56:18.626Z,48.49
2023-05-03T14:01:22.866Z,50.48
2023-05-03T14:06:25.685Z,48.81
2023-05-03T14:11:28.610Z,48.08
2023-05-03T14:21:38.658Z,48.36
2023-05-03T14:26:41.428Z,46.00
2023-05-03T14:31:46.009Z,46.99
2023-05-03T14:36:48.849Z,49.47
2023-05-03T14:41:51.550Z,48.04
2023-05-03T14:46:58.624Z,47.18
2023-05-03T14:52:01.284Z,43.80
2023-05-03T14:57:04.315Z,46.75
2023-05-03T15:02:08.745Z,46.55
2023-05-03T15:07:11.470Z,48.24
2023-05-03T15:12:14.087Z,50.52
2023-05-03T15:17:18.294Z,52.00
2023-05-03T15:22:20.960Z,50.94
2023-05-03T15:27:23.656Z,52.84
2023-05-03T15:32:27.547Z,53.70
2023-05-03T15:37:37.104Z,54.16
2023-05-03T15:42:39.928Z,52.39
2023-05-03T15:47:46.146Z,51.58
2023-05-03T15:52:48.855Z,56.01
2023-05-03T15:57:52.074Z,53.77
2023-05-03T16:02:57.264Z,55.67
2023-05-03T16:07:59.956Z,56.26
2023-05-03T16:13:03.511Z,55.96
2023-05-03T16:18:08.011Z,56.43
2023-05-03T16:23:10.781Z,56.99
2023-05-03T16:28:13.376Z,56.81
2023-05-03T16:33:18.055Z,56.64
2023-05-03T16:38:20.805Z,58.15
2023-05-03T16:43:23.331Z,57.32
2023-05-03T16:48:27.654Z,57.15
2023-05-03T16:53:31.233Z,57.79
2023-05-03T16:58:33.954Z,58.54
2023-05-03T17:03:37.939Z,58.66
2023-05-03T17:08:40.791Z,61.97
2023-05-03T17:13:44.317Z,60.87
2023-05-03T17:18:48.247Z,59.76
2023-05-03T17:23:50.966Z,58.63
2023-05-03T17:28:53.546Z,59.19
2023-05-03T17:33:57.480Z,60.11
2023-05-03T17:39:00.065Z,61.57
2023-05-03T17:44:03.424Z,62.79
2023-05-03T17:49:07.566Z,62.38
2023-05-03T17:54:11.987Z,63.51
2023-05-03T17:59:20.546Z,64.04
2023-05-03T18:04:25.660Z,64.23
2023-05-03T18:09:28.592Z,64.50
2023-05-03T18:14:31.791Z,65.19
2023-05-03T18:19:36.080Z,65.71
2023-05-03T18:24:38.828Z,66.65
2023-05-03T18:29:41.449Z,66.22
2023-05-03T18:34:45.627Z,67.06
2023-05-03T18:39:48.237Z,67.32
2023-05-03T18:44:51.915Z,67.21
2023-05-03T18:49:56.156Z,68.40
2023-05-03T18:54:59.230Z,68.25
2023-05-03T19:00:02.259Z,69.33
2023-05-03T19:05:07.285Z,69.48
2023-05-03T19:10:11.567Z,69.74
2023-05-03T19:15:14.173Z,70.58
2023-05-03T19:20:18.822Z,72.29
2023-05-03T19:25:21.466Z,72.50
2023-05-03T19:30:24.215Z,72.88
2023-05-03T19:35:28.130Z,72.75
2023-05-03T19:40:30.693Z,73.52
2023-05-03T19:45:33.284Z,73.83
2023-05-03T19:50:37.771Z,73.74
2023-05-03T19:55:41.099Z,74.71
2023-05-03T20:00:43.738Z,75.38
2023-05-03T20:05:47.946Z,75.15
2023-05-03T20:10:50.622Z,76.09
2023-05-03T20:15:53.587Z,76.08
2023-05-03T20:20:57.891Z,75.86
2023-05-03T20:26:01.346Z,76.67
2023-05-03T20:31:04.732Z,78.41
2023-05-03T20:36:08.918Z,78.12
2023-05-03T20:41:12.176Z,79.07
2023-05-03T20:46:14.809Z,77.91
2023-05-03T20:51:18.856Z,78.37
2023-05-03T20:56:21.373Z,78.51
2023-05-03T21:01:23.947Z,77.04
2023-05-03T21:06:28.087Z,77.24
2023-05-03T21:11:30.648Z,76.97
2023-05-03T21:16:33.994Z,76.74
2023-05-03T21:21:37.986Z,76.28
2023-05-03T21:26:40.570Z,76.72
2023-05-03T21:31:43.195Z,76.96
2023-05-03T21:36:47.099Z,77.85
2023-05-03T21:41:49.662Z,77.88
2023-05-03T21:46:52.341Z,76.70
2023-05-03T21:51:56.573Z,77.16
2023-05-03T21:56:59.140Z,77.57
2023-05-03T22:02:01.744Z,77.75
2023-05-03T22:07:05.704Z,78.29
2023-05-03T22:12:22.279Z,78.28
2023-05-03T22:17:28.175Z,78.78
2023-05-03T22:22:32.169Z,79.26
2023-05-03T22:27:34.915Z,79.93
2023-05-03T22:32:37.515Z,80.34
2023-05-03T22:37:42.059Z,80.34
2023-05-03T22:42:45.006Z,80.41
2023-05-03T22:47:47.592Z,79.37
2023-05-03T22:52:51.486Z,79.75
2023-05-03T22:57:54.049Z,79.99
2023-05-03T23:02:56.712Z,79.60
2023-05-03T23:08:00.788Z,79.63
2023-05-03T23:13:03.442Z,79.98
2023-05-03T23:18:06.962Z,80.20
2023-05-03T23:23:11.118Z,80.41
2023-05-03T23:28:13.740Z,81.07
2023-05-03T23:33:16.996Z,81.25
2023-05-03T23:38:21.375Z,81.52
2023-05-03T23:43:23.998Z,81.01
2023-05-03T23:48:26.778Z,83.66
2023-05-03T23:53:31.459Z,84.76
2023-05-03T23:58:34.189Z,87.42
